createdAt,value
2018-08-18T02:59:01.109Z,0.1
2018-08-18T03:00:01.075Z,0.1
2018-08-18T03:02:01.094Z,0.2
2018-08-18T03:03:01.318Z,0.3
2018-08-18T03:05:01.096Z,0.4
2018-08-18T03:06:01.100Z,0.5
2018-08-18T03:07:01.106Z,0.6
2018-08-18T03:08:01.315Z,0.7
2018-08-18T03:09:01.130Z,0.9
2018-08-18T03:10:01.102Z,1.0
2018-08-18T03:11:01.096Z,1.2
2018-08-18T03:12:01.091Z,1.4
2018-08-18T03:13:01.310Z,1.7
2018-08-18T03:14:06.096Z,1.9
2018-08-18T03:15:01.092Z,2.2
2018-08-18T03:16:01.101Z,2.5
2018-08-18T03:17:01.099Z,2.9
2018-08-18T03:18:01.244Z,3.4
2018-08-18T03:19:01.123Z,3.9
2018-08-18T03:20:01.168Z,4.6
2018-08-18T03:21:01.099Z,5.3
2018-08-18T03:22:01.063Z,6.1
2018-08-18T03:23:01.306Z,7.1
2018-08-18T03:24:06.099Z,8.3
2018-08-18T03:25:01.098Z,9.6
2018-08-18T03:26:01.098Z,11.1
2018-08-18T03:27:01.101Z,12.9
2018-08-18T03:28:01.242Z,15.0
2018-08-18T03:29:06.196Z,17.5
2018-08-18T03:30:02.125Z,20.3
2018-08-18T03:31:01.067Z,23.5
2018-08-18T03:32:01.100Z,27.3
2018-08-18T03:33:01.248Z,31.7
2018-08-18T03:34:01.120Z,36.9
2018-08-18T03:35:01.063Z,42.9
2018-08-18T03:36:01.066Z,50.0
2018-08-18T03:37:01.067Z,58.3
2018-08-18T03:38:01.243Z,68.0
2018-08-18T03:39:06.101Z,79.3
2018-08-18T03:40:01.098Z,92.2
2018-08-18T03:41:01.098Z,107.0
2018-08-18T03:42:01.066Z,123.9
2018-08-18T03:43:01.299Z,143.3
2018-08-18T03:44:01.116Z,165.5
2018-08-18T03:45:01.100Z,190.8
2018-08-18T03:46:01.105Z,219.9
2018-08-18T03:47:01.104Z,253.2
2018-08-18T03:48:01.276Z,291.3
2018-08-18T03:49:01.101Z,334.3
2018-08-18T03:50:01.102Z,382.7
2018-08-18T03:51:01.101Z,436.8
2018-08-18T03:52:01.104Z,496.9
2018-08-18T03:53:01.296Z,563.2
2018-08-18T03:54:01.105Z,635.7
2018-08-18T03:55:01.106Z,715.1
2018-08-18T03:56:01.170Z,801.7
2018-08-18T03:57:01.106Z,896.5
2018-08-18T03:58:01.340Z,999.6
2018-08-18T03:59:01.107Z,1111.0
2018-08-18T04:00:01.110Z,1230.9
2018-08-18T04:01:01.109Z,1359.2
2018-08-18T04:02:01.186Z,1495.6
2018-08-18T04:03:01.252Z,1640.5
2018-08-18T04:04:01.106Z,1794.6
2018-08-18T04:05:01.108Z,1958.8
2018-08-18T04:06:01.107Z,2133.8
2018-08-18T04:07:01.112Z,2320.0
2018-08-18T04:08:01.245Z,2517.7
2018-08-18T04:10:01.154Z,2746.9
2018-08-18T04:11:01.093Z,2989.3
2018-08-18T04:12:01.094Z,3246.1
2018-08-18T04:13:06.113Z,3518.4
2018-08-18T04:14:01.243Z,3807.1
2018-08-18T04:15:01.100Z,4110.1
2018-08-18T04:16:01.096Z,4424.8
2018-08-18T04:17:01.095Z,4749.7
2018-08-18T04:18:01.120Z,5086.0
2018-08-18T04:19:01.335Z,5434.8
2018-08-18T04:20:01.097Z,5796.8
2018-08-18T04:21:01.097Z,6176.9
2018-08-18T04:22:01.096Z,6574.0
2018-08-18T04:23:01.120Z,6982.9
2018-08-18T04:24:01.239Z,7399.0
2018-08-18T04:25:01.095Z,7801.3
2018-08-18T04:26:01.095Z,8205.3
2018-08-18T04:27:01.096Z,8607.7
2018-08-18T04:28:06.114Z,9012.9
2018-08-18T04:29:01.243Z,9424.5
2018-08-18T04:30:01.104Z,9837.5
2018-08-18T04:31:01.063Z,10253.9
2018-08-18T04:32:01.092Z,10672.9
2018-08-18T04:33:06.095Z,11093.2
2018-08-18T04:34:01.249Z,11511.8
2018-08-18T04:35:01.095Z,11926.1
2018-08-18T04:36:01.094Z,12329.1
2018-08-18T04:37:01.070Z,12721.5
2018-08-18T04:38:06.092Z,13104.8
2018-08-18T04:39:01.239Z,13481.2
2018-08-18T04:40:01.099Z,13851.7
2018-08-18T04:41:01.104Z,14216.9
2018-08-18T04:42:01.100Z,14578.4
2018-08-18T04:43:01.137Z,14929.9
2018-08-18T04:44:01.295Z,15264.1
2018-08-18T04:45:01.097Z,15585.4
2018-08-18T04:46:01.096Z,15893.2
2018-08-18T04:47:01.100Z,16190.4
2018-08-18T04:48:06.104Z,16478.7
2018-08-18T04:49:01.243Z,16760.3
2018-08-18T04:50:01.104Z,17032.3
2018-08-18T04:51:01.102Z,17296.3
2018-08-18T04:52:01.104Z,17550.1
2018-08-18T04:53:06.108Z,17796.0
2018-08-18T04:54:01.250Z,18035.7
2018-08-18T04:55:01.108Z,18271.2
2018-08-18T04:56:01.103Z,18507.3
2018-08-18T04:57:01.211Z,18753.2
2018-08-18T04:58:01.139Z,19022.4
2018-08-18T04:59:01.244Z,19318.0
2018-08-18T05:00:01.109Z,19650.0
2018-08-18T05:01:01.113Z,20016.5
2018-08-18T05:03:01.087Z,20503.9
2018-08-18T05:04:01.232Z,21070.5
2018-08-18T05:05:01.139Z,21709.2
2018-08-18T05:06:06.094Z,22362.7
2018-08-18T05:07:01.095Z,23042.7
2018-08-18T05:08:01.098Z,23779.3
2018-08-18T05:09:01.303Z,24709.5
2018-08-18T05:10:01.092Z,25848.9
2018-08-18T05:11:06.101Z,27214.5
2018-08-18T05:12:01.097Z,28740.2
2018-08-18T05:13:01.093Z,30252.1
2018-08-18T05:14:01.247Z,31476.7
2018-08-18T05:15:01.099Z,32422.0
2018-08-18T05:16:01.119Z,33213.9
2018-08-18T05:17:01.105Z,33932.8
2018-08-18T05:18:01.103Z,34547.8
2018-08-18T05:19:01.310Z,35064.1
2018-08-18T05:20:01.094Z,35497.8
2018-08-18T05:21:01.136Z,35770.3
2018-08-18T05:22:01.064Z,35985.9
2018-08-18T05:23:01.098Z,36615.9
2018-08-18T05:24:01.243Z,36877.8
2018-08-18T05:25:01.101Z,36543.3
2018-08-18T05:26:01.120Z,36133.5
2018-08-18T05:27:01.099Z,35694.2
2018-08-18T05:28:01.096Z,35868.5
2018-08-18T05:29:01.238Z,35865.7
2018-08-18T05:30:01.094Z,36316.4
2018-08-18T05:31:01.101Z,36605.8
2018-08-18T05:32:01.097Z,36995.6
2018-08-18T05:33:01.097Z,37454.9
2018-08-18T05:34:01.309Z,37944.3
2018-08-18T05:35:01.102Z,38345.5
2018-08-18T05:36:01.096Z,38766.8
2018-08-18T05:37:01.099Z,39181.7
2018-08-18T05:38:01.100Z,39323.4
2018-08-18T05:39:01.248Z,39853.1
2018-08-18T05:40:01.094Z,40780.8
2018-08-18T05:41:01.068Z,41445.4
2018-08-18T05:42:01.096Z,41840.5
2018-08-18T05:43:01.102Z,41562.8
2018-08-18T05:44:01.270Z,42993.1
2018-08-18T05:45:01.101Z,44157.9
2018-08-18T05:46:01.097Z,45316.9
2018-08-18T05:47:01.099Z,45507.1
2018-08-18T05:48:01.070Z,46054.1
2018-08-18T05:49:01.247Z,45698.2
2018-08-18T05:50:01.132Z,45290.5
2018-08-18T05:51:01.107Z,45560.7
2018-08-18T05:52:01.099Z,46770.2
2018-08-18T05:53:01.099Z,47068.0
2018-08-18T05:54:01.251Z,46305.7
2018-08-18T05:55:01.126Z,46682.7
2018-08-18T05:56:01.098Z,47126.9
2018-08-18T05:57:01.101Z,48253.7
2018-08-18T05:58:01.069Z,49527.7
2018-08-18T05:59:01.240Z,49554.7
2018-08-18T06:00:01.100Z,49635.1
2018-08-18T06:01:01.102Z,50089.1
2018-08-18T06:02:01.111Z,51553.0
2018-08-18T06:03:01.103Z,52611.3
2018-08-18T06:04:01.252Z,54544.9
2018-08-18T06:05:01.104Z,56610.9
2018-08-18T06:06:01.103Z,58111.2
2018-08-18T06:07:01.101Z,58693.9
2018-08-18T06:08:01.103Z,59976.5
2018-08-18T06:09:01.360Z,62092.4
2018-08-18T06:10:01.100Z,63044.7
2018-08-18T06:11:01.103Z,64026.5
2018-08-18T06:12:01.122Z,64445.9
2018-08-18T06:13:01.105Z,64762.5
2018-08-18T06:14:01.298Z,65040.6
2018-08-18T06:15:01.113Z,65313.3
2018-08-18T06:16:01.111Z,65482.6
2018-08-18T06:17:01.108Z,65535.0
2018-08-18T06:30:01.178Z,65535.0
2018-08-18T06:45:01.266Z,65535.0
2018-08-18T07:00:01.309Z,65535.0
2018-08-18T07:15:01.253Z,65535.0
2018-08-18T07:30:01.331Z,65535.0
2018-08-18T07:45:01.103Z,65535.0
2018-08-18T08:00:06.265Z,65535.0
2018-08-18T08:15:01.106Z,65535.0
2018-08-18T08:30:02.417Z,65535.0
2018-08-18T08:45:01.097Z,65535.0
2018-08-18T09:00:01.103Z,65535.0
2018-08-18T09:15:01.096Z,65535.0
2018-08-18T09:30:01.167Z,65535.0
2018-08-18T09:45:01.094Z,65535.0
2018-08-18T10:00:01.104Z,65535.0
2018-08-18T10:15:01.372Z,65535.0
2018-08-18T10:30:01.102Z,65535.0
2018-08-18T10:45:01.102Z,65535.0
2018-08-18T11:00:01.369Z,65535.0
2018-08-18T11:15:01.179Z,65535.0
2018-08-18T11:30:01.254Z,65535.0
2018-08-18T11:45:06.101Z,65535.0
2018-08-18T12:00:01.094Z,65535.0
2018-08-18T12:15:01.104Z,65535.0
2018-08-18T12:30:01.190Z,65535.0
2018-08-18T12:45:01.093Z,65535.0
2018-08-18T13:00:01.100Z,65535.0
2018-08-18T13:15:01.068Z,65535.0
2018-08-18T13:30:01.166Z,65535.0
2018-08-18T13:45:01.096Z,65535.0
2018-08-18T14:00:01.160Z,65535.0
2018-08-18T14:15:01.098Z,65535.0
2018-08-18T14:28:01.102Z,65128.5
2018-08-18T14:29:01.072Z,64119.0
2018-08-18T14:30:01.146Z,63025.7
2018-08-18T14:32:01.088Z,62106.9
2018-08-18T14:33:01.088Z,61422.1
2018-08-18T14:34:01.124Z,60883.4
2018-08-18T14:35:01.092Z,60191.3
2018-08-18T14:36:01.262Z,59727.7
2018-08-18T14:44:01.096Z,60134.3
2018-08-18T14:45:01.103Z,61143.7
2018-08-18T14:46:01.269Z,62237.0
2018-08-18T14:47:01.095Z,63155.9
2018-08-18T14:48:01.113Z,63840.6
2018-08-18T14:49:01.091Z,64379.3
2018-08-18T14:50:01.093Z,65071.5
2018-08-18T14:51:01.239Z,65535.0
2018-08-18T15:00:01.308Z,65535.0
2018-08-18T15:10:01.239Z,64725.5
2018-08-18T15:11:06.099Z,63264.9
2018-08-18T15:12:01.090Z,61427.4
2018-08-18T15:13:01.100Z,59077.8
2018-08-18T15:14:01.094Z,56928.3
2018-08-18T15:15:01.232Z,55637.8
2018-08-18T15:16:01.089Z,55523.8
2018-08-18T15:18:01.088Z,55521.5
2018-08-18T15:19:01.092Z,55058.1
2018-08-18T15:20:01.244Z,54068.7
2018-08-18T15:21:01.092Z,52772.8
2018-08-18T15:22:01.087Z,51355.6
2018-08-18T15:23:01.096Z,50095.1
2018-08-18T15:24:01.099Z,49982.1
2018-08-18T15:25:01.239Z,50791.7
2018-08-18T15:26:01.112Z,52252.3
2018-08-18T15:27:01.093Z,54089.7
2018-08-18T15:28:01.095Z,56439.3
2018-08-18T15:29:01.094Z,58588.9
2018-08-18T15:30:01.304Z,59879.3
2018-08-18T15:31:01.116Z,59993.3
2018-08-18T15:33:01.057Z,59995.6
2018-08-18T15:34:01.093Z,60459.0
2018-08-18T15:35:01.235Z,61448.5
2018-08-18T15:36:01.118Z,62744.3
2018-08-18T15:37:01.096Z,64161.5
2018-08-18T15:38:01.091Z,65422.0
2018-08-18T15:39:01.121Z,65535.0
2018-08-18T15:45:01.178Z,65535.0
2018-08-18T15:59:01.248Z,65329.7
2018-08-18T16:00:01.093Z,64203.7
2018-08-18T16:01:01.324Z,63059.1
2018-08-18T16:02:01.093Z,62750.7
2018-08-18T16:03:01.092Z,62361.5
2018-08-18T16:04:01.139Z,60712.3
2018-08-18T16:05:01.095Z,58313.0
2018-08-18T16:06:01.269Z,56135.5
2018-08-18T16:07:01.103Z,55359.1
2018-08-18T16:10:01.213Z,54786.9
2018-08-18T16:11:01.249Z,53575.4
2018-08-18T16:12:01.099Z,52363.9
2018-08-18T16:13:01.096Z,51425.9
2018-08-18T16:14:01.099Z,51375.3
2018-08-18T16:15:06.110Z,52501.3
2018-08-18T16:16:01.243Z,53645.8
2018-08-18T16:17:01.102Z,53954.3
2018-08-18T16:18:01.098Z,54343.5
2018-08-18T16:19:01.115Z,55640.2
2018-08-18T16:20:01.100Z,57026.3
2018-08-18T16:21:01.242Z,58869.3
2018-08-18T16:22:01.106Z,59645.7
2018-08-18T16:25:01.100Z,60217.9
2018-08-18T16:26:01.241Z,61429.4
2018-08-18T16:27:01.100Z,62549.7
2018-08-18T16:28:01.111Z,63169.6
2018-08-18T16:29:01.099Z,63236.8
2018-08-18T16:30:01.099Z,63038.9
2018-08-18T16:31:01.251Z,62915.9
2018-08-18T16:32:01.104Z,62658.7
2018-08-18T16:33:01.103Z,62069.9
2018-08-18T16:34:01.130Z,61958.4
2018-08-18T16:35:06.103Z,62856.7
2018-08-18T16:36:01.246Z,63191.2
2018-08-18T16:38:01.090Z,63015.1
2018-08-18T16:43:01.396Z,63106.3
2018-08-18T16:44:01.103Z,63259.6
2018-08-18T16:45:01.060Z,63448.4
2018-08-18T16:46:01.093Z,63624.9
2018-08-18T16:47:01.099Z,63392.1
2018-08-18T16:48:01.237Z,62951.6
2018-08-18T16:49:01.135Z,62490.1
2018-08-18T16:50:01.093Z,61550.7
2018-08-18T16:51:01.093Z,60072.5
2018-08-18T16:52:01.098Z,58271.8
2018-08-18T16:53:01.239Z,56655.2
2018-08-18T16:54:01.121Z,54950.4
2018-08-18T16:55:01.062Z,53435.3
2018-08-18T16:56:01.098Z,51988.2
2018-08-18T16:57:01.093Z,50389.9
2018-08-18T16:58:01.243Z,49066.9
2018-08-18T16:59:06.092Z,47907.9
2018-08-18T17:00:01.095Z,46713.1
2018-08-18T17:01:01.063Z,45543.9
2018-08-18T17:02:01.101Z,44653.5
2018-08-18T17:03:01.245Z,44289.7
2018-08-18T17:04:01.124Z,44506.1
2018-08-18T17:05:01.064Z,45188.9
2018-08-18T17:06:01.099Z,45953.3
2018-08-18T17:07:01.097Z,46755.5
2018-08-18T17:08:01.241Z,47302.9
2018-08-18T17:09:01.129Z,47753.6
2018-08-18T17:10:01.067Z,48001.7
2018-08-18T17:11:01.098Z,48007.5
2018-08-18T17:12:01.104Z,48275.9
2018-08-18T17:13:01.242Z,48333.1
2018-08-18T17:14:06.110Z,48238.6
2018-08-18T17:15:01.100Z,47906.8
2018-08-18T17:16:01.095Z,47594.9
2018-08-18T17:17:01.104Z,47005.4
2018-08-18T17:18:01.502Z,45795.1
2018-08-18T17:19:06.111Z,44049.3
2018-08-18T17:20:01.098Z,42233.9
2018-08-18T17:21:01.103Z,40855.2
2018-08-18T17:22:01.103Z,39641.4
2018-08-18T17:23:01.243Z,38199.7
2018-08-18T17:24:06.106Z,36599.8
2018-08-18T17:25:01.100Z,35062.1
2018-08-18T17:26:01.100Z,33676.8
2018-08-18T17:27:01.108Z,32240.6
2018-08-18T17:28:01.255Z,30784.7
2018-08-18T17:29:06.114Z,29515.6
2018-08-18T17:30:01.153Z,28360.5
2018-08-18T17:31:01.104Z,27040.2
2018-08-18T17:32:01.108Z,25980.9
2018-08-18T17:33:01.313Z,25299.2
2018-08-18T17:34:01.131Z,25008.3
2018-08-18T17:35:01.107Z,24652.9
2018-08-18T17:36:01.246Z,23817.1
2018-08-18T17:37:01.114Z,22895.7
2018-08-18T17:38:01.249Z,22436.7
2018-08-18T17:39:06.125Z,22082.0
2018-08-18T17:40:01.104Z,21604.9
2018-08-18T17:41:01.105Z,21091.0
2018-08-18T17:42:01.110Z,20531.4
2018-08-18T17:43:01.282Z,19738.1
2018-08-18T17:44:01.128Z,18923.8
2018-08-18T17:45:01.109Z,18423.3
2018-08-18T17:46:01.109Z,18114.7
2018-08-18T17:47:01.102Z,17759.5
2018-08-18T20:35:01.221Z,0.0
2018-08-18T20:55:00.806Z,0.0
2018-08-18T21:00:00.786Z,0.0
2018-08-18T21:15:00.812Z,0.0
2018-08-18T21:30:00.757Z,0.0
2018-08-18T21:45:00.713Z,0.0
2018-08-18T22:00:00.753Z,0.0
2018-08-18T22:15:00.766Z,0.0
2018-08-18T22:30:00.761Z,0.0
2018-08-18T22:45:00.794Z,0.0
2018-08-18T23:00:00.826Z,0.0
2018-08-18T23:15:00.844Z,0.0
2018-08-18T23:30:00.841Z,0.0
2018-08-18T23:45:00.833Z,0.0
